KBKW/BKW METAR and TAF weather

Enter ICAO airport designator
Station Type Date Time Source
KBKW METAR 2021/09/16 09:51 UTC NOAA

KBKW 160951Z AUTO 00000KT 1/2SM FG VV001 16/16 A3012 RMK AO2 SLP177 T01560156 TSNO


Station Type Date Time Source
KBKW Decoded METAR 2021/09/16 09:51 UTC NOAA

RALEIGH COUNTY MEM AIRPORT , WV, United States (KBKW) 37-48N 081-07W 764M
Sep 16, 2021 - 05:51 AM EDT / 2021.09.16 0951 UTC
Wind: Calm:0
Visibility: 1/2 mile(s):0
Sky conditions: obscured
Weather: fog
Temperature: 60.1 F (15.6 C)
Dew Point: 60.1 F (15.6 C)
Relative Humidity: 100%
Pressure (altimeter): 30.12 in. Hg (1019 hPa)
ob: KBKW 160951Z AUTO 00000KT 1/2SM FG VV001 16/16 A3012 RMK AO2 SLP177 T01560156 TSNO
cycle: 10

Station Type Date Time Source
KBKW TAF 2021/09/16 07:28 UTC NOAA

TAF
AMD KBKW 160725Z 1607/1706 00000KT 1/4SM FG VV001
FM161300 VRB03KT 2SM BR BKN002
FM161400 13004KT P6SM SKC
FM161600 14005KT P6SM SCT020
FM161900 14006KT P6SM SCT035

Example: see airport list